Red Town, Illinois
Current Conditions -  °F | °C
As of 2:52 PM on Sunday 23 Nov 2014 (Local Time) from KMDH Reporting Station
Light Rain Light Rain  
Wind Chill: 53°   Ceiling: 900
Heat Index: 53°   Visibility: 5mi
Dew Point: 52°   Wind: 7mph
Humidity: 96%   Direction: 110°ESE
Pressure: 29.38"   Gusts: NA
Location:  37.6428°N, 89.4674°W
Report Text: KMDH 232052Z AUTO 11006KT 5SM -RA BR OVC009 12/11 A2938 RMK AO2 CIG 005V012 SLP948 P0004 60010 T01170111 58062
Loading
Personal Weather Stations






























Interactive Weather Map New forecast layout! Learn more

10-Day Weather Forecast

Advertisements
Track Severe Weather on mobile